createdAt,value
2023-02-06T00:00:40.420Z,8.33
2023-02-06T00:03:06.976Z,8.31
2023-02-06T00:05:33.977Z,8.29
2023-02-06T00:08:00.953Z,8.16
2023-02-06T00:10:27.480Z,8.25
2023-02-06T00:12:54.043Z,8.19
2023-02-06T00:15:20.828Z,8.12
2023-02-06T00:17:47.368Z,8.21
2023-02-06T00:20:14.002Z,8.12
2023-02-06T00:22:40.620Z,8.13
2023-02-06T00:25:07.515Z,8.25
2023-02-06T00:27:34.403Z,8.09
2023-02-06T00:30:00.988Z,8.16
2023-02-06T00:32:27.582Z,8.22
2023-02-06T00:34:54.123Z,8.20
2023-02-06T00:37:20.742Z,8.24
2023-02-06T00:39:47.287Z,8.20
2023-02-06T00:42:14.552Z,8.17
2023-02-06T00:44:41.110Z,8.18
2023-02-06T00:47:08.801Z,8.13
2023-02-06T00:49:35.329Z,8.19
2023-02-06T00:52:01.857Z,8.28
2023-02-06T00:54:28.438Z,8.24
2023-02-06T00:56:54.961Z,8.29
2023-02-06T00:59:21.495Z,8.26
2023-02-06T01:01:48.058Z,8.32
2023-02-06T01:04:14.627Z,8.36
2023-02-06T01:06:41.169Z,8.26
2023-02-06T01:09:07.676Z,8.25
2023-02-06T01:11:35.417Z,8.28
2023-02-06T01:14:02.145Z,8.24
2023-02-06T01:16:28.991Z,8.26
2023-02-06T01:18:55.917Z,8.20
2023-02-06T01:21:24.524Z,8.12
2023-02-06T01:23:53.019Z,8.12
2023-02-06T01:26:22.792Z,8.11
2023-02-06T01:28:50.017Z,8.19
2023-02-06T01:31:34.814Z,8.19
2023-02-06T01:34:03.827Z,8.15
2023-02-06T01:36:30.387Z,8.16
2023-02-06T01:38:57.027Z,8.08
2023-02-06T01:41:24.122Z,8.02
2023-02-06T01:44:17.257Z,7.91
2023-02-06T01:46:46.921Z,7.93
2023-02-06T01:49:24.880Z,7.93
2023-02-06T01:51:59.804Z,7.97
2023-02-06T01:54:26.833Z,8.00
2023-02-06T01:56:58.577Z,8.05
2023-02-06T01:59:26.280Z,7.95
2023-02-06T02:01:52.937Z,7.85
2023-02-06T02:04:22.636Z,7.90
2023-02-06T02:06:58.219Z,7.96
2023-02-06T02:09:24.972Z,7.85
2023-02-06T02:11:51.526Z,7.89
2023-02-06T02:14:18.287Z,7.86
2023-02-06T02:17:05.618Z,7.78
2023-02-06T02:19:59.251Z,7.69
2023-02-06T02:22:51.936Z,7.82
2023-02-06T02:25:52.500Z,7.67
2023-02-06T02:28:37.926Z,7.71
2023-02-06T02:31:42.163Z,7.80
2023-02-06T02:34:31.411Z,7.71
2023-02-06T02:37:07.031Z,7.68
2023-02-06T02:39:59.654Z,7.61
2023-02-06T02:42:26.183Z,7.67
2023-02-06T02:45:13.185Z,7.76
2023-02-06T02:47:49.085Z,7.80
2023-02-06T02:50:18.077Z,7.80
2023-02-06T02:52:45.907Z,7.78
2023-02-06T02:55:20.985Z,7.80
2023-02-06T02:57:58.592Z,7.75
2023-02-06T03:00:26.720Z,7.78
2023-02-06T03:02:56.471Z,7.76
2023-02-06T03:05:25.019Z,7.67
2023-02-06T03:07:53.254Z,7.62
2023-02-06T03:10:23.456Z,7.57
2023-02-06T03:13:04.112Z,7.60
2023-02-06T03:15:37.110Z,7.48
2023-02-06T03:18:19.800Z,7.35
2023-02-06T03:20:48.250Z,7.38
2023-02-06T03:23:24.716Z,7.30
2023-02-06T03:25:55.541Z,7.34
2023-02-06T03:28:27.345Z,7.34
2023-02-06T03:30:58.802Z,7.26
2023-02-06T03:33:39.853Z,7.11
2023-02-06T03:36:09.911Z,7.04
2023-02-06T03:38:36.972Z,6.96
2023-02-06T03:41:04.632Z,6.96
2023-02-06T03:43:32.072Z,6.89
2023-02-06T03:46:05.552Z,6.79
2023-02-06T03:48:41.861Z,6.86
2023-02-06T03:51:15.385Z,6.78
2023-02-06T03:53:43.332Z,6.60
2023-02-06T03:56:23.878Z,6.67
2023-02-06T03:58:50.623Z,6.75
2023-02-06T04:01:18.319Z,6.90
2023-02-06T04:03:44.890Z,6.92
2023-02-06T04:06:11.449Z,6.96
2023-02-06T04:08:38.012Z,7.02
2023-02-06T04:11:04.703Z,7.00
2023-02-06T04:13:31.327Z,6.83
2023-02-06T04:15:58.021Z,6.82
2023-02-06T04:18:24.609Z,6.82
2023-02-06T04:20:52.484Z,6.84
2023-02-06T04:23:19.900Z,6.82
2023-02-06T04:25:47.256Z,6.74
2023-02-06T04:28:14.270Z,6.66
2023-02-06T04:30:41.008Z,6.68
2023-02-06T04:33:07.652Z,6.57
2023-02-06T04:35:34.608Z,6.50
2023-02-06T04:38:01.262Z,6.34
2023-02-06T04:40:27.911Z,6.34
2023-02-06T04:42:54.530Z,6.25
2023-02-06T04:45:21.064Z,5.91
2023-02-06T04:47:50.407Z,6.00
2023-02-06T04:50:18.005Z,6.17
2023-02-06T04:52:44.701Z,6.06
2023-02-06T04:55:11.480Z,6.16
2023-02-06T04:57:38.994Z,6.09
2023-02-06T05:00:07.434Z,6.04
2023-02-06T05:02:39.598Z,6.04
2023-02-06T05:05:08.392Z,5.91
2023-02-06T05:07:35.772Z,5.81
2023-02-06T05:10:02.436Z,5.83
2023-02-06T05:12:29.092Z,5.79
2023-02-06T05:14:56.203Z,5.80
2023-02-06T05:17:22.898Z,5.70
2023-02-06T05:19:49.524Z,5.68
2023-02-06T05:22:16.039Z,5.73
2023-02-06T05:24:42.576Z,5.68
2023-02-06T05:27:09.126Z,5.72
2023-02-06T05:29:35.655Z,5.57
2023-02-06T05:32:02.197Z,5.50
2023-02-06T05:34:28.711Z,5.51
2023-02-06T05:36:55.231Z,5.51
2023-02-06T05:39:21.884Z,5.53
2023-02-06T05:41:48.454Z,5.39
2023-02-06T05:44:14.984Z,5.42
2023-02-06T05:46:41.534Z,5.49
2023-02-06T05:49:08.100Z,5.46
2023-02-06T05:51:34.843Z,5.36
2023-02-06T05:54:01.683Z,5.17
2023-02-06T05:56:28.207Z,5.08
2023-02-06T05:58:54.810Z,5.04
2023-02-06T06:01:21.325Z,5.03
2023-02-06T06:03:50.913Z,5.00
2023-02-06T06:06:17.636Z,4.84
2023-02-06T06:08:44.166Z,4.80
2023-02-06T06:11:10.702Z,4.94
2023-02-06T06:13:37.237Z,4.99
2023-02-06T06:16:03.977Z,4.86
2023-02-06T06:18:30.578Z,4.67
2023-02-06T06:20:57.171Z,4.57
2023-02-06T06:23:23.760Z,4.50
2023-02-06T06:25:50.405Z,4.58
2023-02-06T06:28:17.110Z,4.51
2023-02-06T06:30:43.901Z,4.50
2023-02-06T06:33:10.592Z,4.56
2023-02-06T06:35:37.737Z,4.56
2023-02-06T06:38:04.450Z,4.58
2023-02-06T06:40:31.023Z,4.67
2023-02-06T06:42:57.569Z,4.64
2023-02-06T06:45:24.254Z,4.67
2023-02-06T06:47:50.819Z,4.77
2023-02-06T06:50:17.355Z,4.56
2023-02-06T06:52:43.866Z,4.52
2023-02-06T06:55:10.933Z,4.52
2023-02-06T06:57:37.468Z,4.51
2023-02-06T07:00:04.908Z,4.56
2023-02-06T07:02:31.411Z,4.76
2023-02-06T07:05:00.209Z,4.78
2023-02-06T07:07:26.772Z,4.68
2023-02-06T07:09:53.375Z,4.63
2023-02-06T07:12:20.095Z,4.60
2023-02-06T07:14:46.654Z,4.64
2023-02-06T07:17:13.256Z,4.64
2023-02-06T07:19:39.818Z,4.60
2023-02-06T07:22:06.427Z,4.79
2023-02-06T07:24:33.000Z,4.89
2023-02-06T07:26:59.552Z,4.93
2023-02-06T07:29:26.145Z,5.15
2023-02-06T07:31:52.712Z,5.44
2023-02-06T07:34:19.282Z,5.44
2023-02-06T07:36:45.817Z,5.66
2023-02-06T07:39:12.348Z,5.61
2023-02-06T07:41:38.930Z,5.66
2023-02-06T07:44:05.860Z,5.75
2023-02-06T07:46:33.413Z,5.85
2023-02-06T07:49:00.252Z,5.92
2023-02-06T07:51:26.877Z,5.98
2023-02-06T07:53:53.409Z,6.08
2023-02-06T07:56:20.811Z,6.10
2023-02-06T07:58:55.266Z,6.14
2023-02-06T08:01:22.722Z,6.11
2023-02-06T08:03:53.915Z,5.99
2023-02-06T08:06:24.196Z,6.05
2023-02-06T08:08:51.602Z,6.17
2023-02-06T08:11:20.173Z,5.97
2023-02-06T08:13:47.749Z,6.24
2023-02-06T08:16:17.559Z,6.27
2023-02-06T08:18:44.327Z,6.39
2023-02-06T08:21:14.838Z,6.45
2023-02-06T08:23:42.339Z,6.59
2023-02-06T08:26:13.016Z,6.53
2023-02-06T08:28:42.184Z,6.44
2023-02-06T08:31:18.750Z,5.99
2023-02-06T08:33:45.847Z,6.19
2023-02-06T08:36:13.439Z,6.42
2023-02-06T08:38:40.299Z,6.75
2023-02-06T08:41:18.956Z,6.29
2023-02-06T08:43:47.058Z,6.95
2023-02-06T08:46:14.123Z,6.89
2023-02-06T08:48:40.928Z,7.07
2023-02-06T08:51:08.799Z,7.58
2023-02-06T08:53:35.742Z,7.79
2023-02-06T08:56:09.205Z,7.55
2023-02-06T08:58:36.616Z,7.62
2023-02-06T09:01:13.784Z,7.40
2023-02-06T09:03:41.786Z,7.11
2023-02-06T09:06:10.591Z,7.37
2023-02-06T09:08:38.512Z,7.22
2023-02-06T09:11:09.959Z,6.88
2023-02-06T09:13:37.101Z,6.89
2023-02-06T09:16:04.690Z,7.24
2023-02-06T09:18:31.330Z,7.27
2023-02-06T09:21:12.291Z,7.59
2023-02-06T09:23:40.202Z,7.78
2023-02-06T09:26:06.744Z,7.96
2023-02-06T09:28:34.045Z,8.03
2023-02-06T09:31:00.866Z,8.12
2023-02-06T09:33:27.540Z,8.32
2023-02-06T09:36:11.804Z,8.30
2023-02-06T09:38:40.406Z,8.65
2023-02-06T09:41:19.187Z,8.77
2023-02-06T09:43:54.404Z,8.78
2023-02-06T09:46:27.333Z,8.66
2023-02-06T09:48:56.750Z,8.68
2023-02-06T09:51:42.405Z,8.82
2023-02-06T09:54:24.924Z,8.94
2023-02-06T09:57:01.710Z,8.77
2023-02-06T09:59:34.698Z,9.01
2023-02-06T10:02:14.649Z,8.85
2023-02-06T10:04:46.990Z,9.08
2023-02-06T10:07:46.558Z,9.22
2023-02-06T10:10:25.713Z,9.02
2023-02-06T10:13:10.821Z,9.19
2023-02-06T10:15:45.132Z,8.97
2023-02-06T10:18:36.038Z,9.14
2023-02-06T10:21:10.115Z,9.25
2023-02-06T10:23:46.082Z,9.45
2023-02-06T10:26:19.761Z,9.45
2023-02-06T10:28:52.966Z,9.33
2023-02-06T10:31:25.341Z,9.00
2023-02-06T10:34:39.769Z,8.69
2023-02-06T10:37:09.275Z,8.55
2023-02-06T10:40:21.052Z,8.68
2023-02-06T10:43:24.702Z,8.95
2023-02-06T10:46:19.748Z,8.12
2023-02-06T10:49:33.570Z,8.19
2023-02-06T10:52:32.690Z,8.23
2023-02-06T10:55:05.089Z,8.64
2023-02-06T10:57:32.107Z,8.90
2023-02-06T11:00:01.603Z,8.87
2023-02-06T11:03:01.283Z,8.87
2023-02-06T11:05:33.578Z,8.92
2023-02-06T11:08:25.066Z,8.99
2023-02-06T11:10:52.071Z,8.85
2023-02-06T11:13:29.777Z,9.20
2023-02-06T11:16:08.276Z,9.16
2023-02-06T11:18:39.017Z,9.18
2023-02-06T11:21:08.559Z,9.23
2023-02-06T11:23:35.237Z,8.98
2023-02-06T11:26:13.850Z,8.83
2023-02-06T11:28:49.109Z,8.82
2023-02-06T11:31:18.383Z,8.91
2023-02-06T11:33:52.028Z,9.19
2023-02-06T11:36:35.981Z,9.37
2023-02-06T11:39:06.567Z,9.53
2023-02-06T11:41:33.605Z,9.49
2023-02-06T11:44:06.499Z,9.25
2023-02-06T11:46:38.738Z,9.28
2023-02-06T11:49:31.562Z,9.39
2023-02-06T11:52:00.319Z,8.80
2023-02-06T11:54:32.086Z,9.07
2023-02-06T11:57:18.541Z,8.49
2023-02-06T11:59:54.589Z,8.90
2023-02-06T12:02:29.097Z,9.26
2023-02-06T12:05:11.598Z,9.10
2023-02-06T12:08:02.496Z,9.33
2023-02-06T12:10:34.046Z,9.35
2023-02-06T12:13:15.664Z,8.71
2023-02-06T12:15:50.190Z,9.10
2023-02-06T12:18:21.308Z,8.63
2023-02-06T12:21:00.255Z,8.70
2023-02-06T12:23:45.427Z,8.53
2023-02-06T12:26:15.841Z,9.05
2023-02-06T12:29:01.043Z,8.93
2023-02-06T12:31:58.596Z,8.80
2023-02-06T12:34:41.760Z,8.55
2023-02-06T12:37:46.829Z,8.57
2023-02-06T12:40:38.714Z,8.40
2023-02-06T12:43:11.473Z,7.88
2023-02-06T12:46:01.806Z,7.64
2023-02-06T12:48:44.901Z,7.97
2023-02-06T12:51:28.723Z,8.27
2023-02-06T12:54:12.570Z,8.09
2023-02-06T12:56:47.627Z,7.66
2023-02-06T12:59:57.090Z,7.96
2023-02-06T13:02:55.093Z,8.40
2023-02-06T13:05:24.705Z,8.33
2023-02-06T13:07:54.579Z,7.79
2023-02-06T13:10:25.965Z,8.06
2023-02-06T13:12:54.846Z,7.99
2023-02-06T13:15:24.081Z,7.62
2023-02-06T13:17:51.245Z,7.71
2023-02-06T13:20:20.230Z,7.45
2023-02-06T13:22:54.709Z,7.50
2023-02-06T13:25:30.543Z,7.22
2023-02-06T13:28:02.173Z,7.59
2023-02-06T13:30:28.728Z,7.29
2023-02-06T13:33:09.604Z,7.69
2023-02-06T13:35:55.170Z,7.47
2023-02-06T13:38:33.790Z,6.90
2023-02-06T13:41:12.702Z,6.94
2023-02-06T13:43:41.394Z,6.69
2023-02-06T13:46:15.349Z,7.06
2023-02-06T13:49:14.316Z,6.58
2023-02-06T13:51:52.464Z,7.06
2023-02-06T13:54:37.449Z,7.25
2023-02-06T13:57:39.164Z,7.10
2023-02-06T14:00:18.212Z,7.16
2023-02-06T14:02:48.608Z,7.07
2023-02-06T14:05:25.903Z,6.76
2023-02-06T14:08:14.704Z,6.93
2023-02-06T14:11:06.082Z,6.26
2023-02-06T14:14:14.539Z,6.51
2023-02-06T14:17:16.814Z,6.55
2023-02-06T14:19:48.072Z,6.63
2023-02-06T14:22:29.718Z,6.14
2023-02-06T14:25:24.955Z,6.63
2023-02-06T14:28:16.748Z,6.72
2023-02-06T14:31:02.333Z,6.75
2023-02-06T14:33:56.898Z,7.02
2023-02-06T14:36:23.327Z,7.14
2023-02-06T14:39:08.418Z,7.07
2023-02-06T14:41:39.360Z,6.26
2023-02-06T14:44:13.591Z,6.76
2023-02-06T14:46:41.912Z,7.16
2023-02-06T14:49:16.947Z,7.31
2023-02-06T14:51:47.563Z,7.50
2023-02-06T14:54:35.474Z,7.39
2023-02-06T14:57:18.469Z,7.62
2023-02-06T15:00:18.112Z,7.85
2023-02-06T15:02:44.678Z,7.81
2023-02-06T15:05:25.412Z,7.57
2023-02-06T15:08:00.505Z,7.64
2023-02-06T15:10:36.189Z,7.61
2023-02-06T15:13:04.028Z,7.75
2023-02-06T15:15:33.766Z,7.36
2023-02-06T15:18:05.734Z,7.33
2023-02-06T15:20:41.221Z,7.46
2023-02-06T15:23:41.808Z,7.04
2023-02-06T15:26:35.593Z,6.99
2023-02-06T15:29:04.895Z,7.16
2023-02-06T15:31:32.071Z,7.26
2023-02-06T15:34:00.920Z,7.32
2023-02-06T15:36:39.217Z,7.22
2023-02-06T15:39:09.473Z,7.21
2023-02-06T15:41:37.189Z,7.04
2023-02-06T15:44:10.289Z,7.01
2023-02-06T15:46:37.939Z,6.81
2023-02-06T15:49:06.773Z,6.84
2023-02-06T15:51:48.979Z,6.72
2023-02-06T15:54:15.460Z,6.65
2023-02-06T15:56:43.405Z,6.56
2023-02-06T15:59:25.179Z,6.46
2023-02-06T16:01:54.328Z,6.59
2023-02-06T16:04:35.171Z,6.63
2023-02-06T16:07:19.233Z,6.51
2023-02-06T16:10:06.010Z,6.38
2023-02-06T16:12:35.406Z,6.26
2023-02-06T16:15:20.652Z,6.29
2023-02-06T16:17:47.282Z,6.40
2023-02-06T16:20:32.998Z,6.50
2023-02-06T16:23:21.508Z,6.55
2023-02-06T16:25:59.005Z,6.44
2023-02-06T16:28:27.391Z,6.59
2023-02-06T16:31:00.160Z,6.51
2023-02-06T16:33:49.374Z,6.30
2023-02-06T16:36:18.580Z,6.55
2023-02-06T16:38:54.019Z,6.53
2023-02-06T16:41:37.526Z,6.65
2023-02-06T16:44:10.344Z,6.78
2023-02-06T16:46:37.009Z,6.95
2023-02-06T16:49:10.511Z,6.89
2023-02-06T16:51:40.109Z,6.93
2023-02-06T16:54:08.649Z,6.88
2023-02-06T16:56:37.965Z,6.88
2023-02-06T16:59:04.535Z,6.85
2023-02-06T17:01:32.359Z,6.89
2023-02-06T17:03:59.049Z,6.91
2023-02-06T17:06:27.934Z,6.99
2023-02-06T17:08:57.579Z,7.06
2023-02-06T17:11:24.458Z,7.02
2023-02-06T17:13:50.977Z,7.07
2023-02-06T17:16:20.637Z,7.00
2023-02-06T17:18:47.916Z,7.00
2023-02-06T17:21:18.611Z,6.85
2023-02-06T17:23:45.652Z,7.00
2023-02-06T17:26:21.420Z,7.00
2023-02-06T17:28:48.741Z,6.97
2023-02-06T17:31:15.928Z,7.02
2023-02-06T17:33:42.553Z,7.01
2023-02-06T17:36:19.878Z,7.01
2023-02-06T17:38:46.694Z,6.97
2023-02-06T17:41:13.304Z,7.09
2023-02-06T17:43:39.869Z,7.01
2023-02-06T17:46:06.733Z,6.95
2023-02-06T17:48:36.624Z,6.93
2023-02-06T17:51:05.081Z,7.10
2023-02-06T17:53:31.669Z,7.05
2023-02-06T17:56:03.768Z,7.13
2023-02-06T17:58:30.329Z,7.14
2023-02-06T18:00:56.852Z,7.12
2023-02-06T18:03:23.545Z,7.11
2023-02-06T18:06:00.299Z,7.15
2023-02-06T18:08:27.868Z,7.13
2023-02-06T18:10:55.223Z,7.13
2023-02-06T18:13:24.267Z,7.22
2023-02-06T18:15:53.110Z,7.20
2023-02-06T18:18:20.120Z,7.06
2023-02-06T18:20:46.639Z,7.15
2023-02-06T18:23:13.881Z,7.07
2023-02-06T18:25:43.432Z,7.04
2023-02-06T18:28:13.728Z,6.96
2023-02-06T18:30:41.759Z,7.01
2023-02-06T18:33:09.080Z,6.82
2023-02-06T18:35:40.927Z,6.85
2023-02-06T18:38:09.789Z,6.91
2023-02-06T18:40:38.470Z,6.93
2023-02-06T18:43:06.392Z,6.95
2023-02-06T18:45:35.946Z,6.89
2023-02-06T18:48:04.301Z,6.89
2023-02-06T18:50:31.437Z,6.89
2023-02-06T18:52:58.253Z,6.89
2023-02-06T18:55:25.116Z,7.00
2023-02-06T18:57:52.476Z,7.00
2023-02-06T19:00:21.222Z,6.92
2023-02-06T19:02:47.801Z,7.03
2023-02-06T19:05:14.871Z,6.98
2023-02-06T19:07:41.782Z,6.83
2023-02-06T19:10:12.764Z,6.79
2023-02-06T19:12:40.229Z,6.91
2023-02-06T19:15:07.275Z,6.72
2023-02-06T19:17:34.143Z,6.69
2023-02-06T19:20:00.753Z,6.82
2023-02-06T19:22:27.431Z,6.76
2023-02-06T19:24:54.126Z,6.69
2023-02-06T19:27:21.358Z,6.35
2023-02-06T19:29:48.209Z,6.48
2023-02-06T19:32:15.860Z,6.64
2023-02-06T19:34:44.033Z,6.44
2023-02-06T19:37:11.925Z,6.47
2023-02-06T19:39:40.281Z,6.43
2023-02-06T19:42:15.423Z,6.18
2023-02-06T19:44:42.899Z,5.84
2023-02-06T19:47:09.905Z,6.25
2023-02-06T19:49:36.623Z,6.29
2023-02-06T19:52:03.848Z,6.26
2023-02-06T19:54:30.456Z,6.28
2023-02-06T19:56:57.031Z,6.29
2023-02-06T19:59:26.124Z,6.21
2023-02-06T20:02:00.901Z,6.18
2023-02-06T20:04:31.024Z,6.22
2023-02-06T20:06:57.920Z,5.88
2023-02-06T20:09:25.661Z,6.07
2023-02-06T20:11:52.211Z,6.08
2023-02-06T20:14:19.149Z,5.87
2023-02-06T20:16:46.541Z,5.87
2023-02-06T20:19:19.255Z,5.83
2023-02-06T20:21:49.148Z,5.71
2023-02-06T20:24:20.585Z,5.81
2023-02-06T20:26:48.144Z,5.76
2023-02-06T20:29:26.715Z,5.73
2023-02-06T20:31:54.434Z,5.38
2023-02-06T20:34:21.875Z,5.47
2023-02-06T20:36:50.100Z,5.56
2023-02-06T20:39:17.627Z,5.50
2023-02-06T20:41:45.412Z,5.39
2023-02-06T20:44:13.437Z,5.37
2023-02-06T20:46:40.705Z,5.35
2023-02-06T20:49:12.958Z,5.37
2023-02-06T20:51:39.520Z,5.22
2023-02-06T20:54:06.526Z,5.31
2023-02-06T20:56:34.072Z,5.39
2023-02-06T20:59:01.193Z,5.36
2023-02-06T21:01:30.458Z,5.27
2023-02-06T21:04:03.376Z,5.36
2023-02-06T21:06:30.883Z,5.25
2023-02-06T21:09:00.158Z,5.11
2023-02-06T21:11:29.514Z,5.19
2023-02-06T21:13:58.177Z,5.13
2023-02-06T21:16:26.441Z,5.20
2023-02-06T21:18:53.773Z,5.14
2023-02-06T21:21:20.844Z,5.00
2023-02-06T21:23:48.197Z,5.00
2023-02-06T21:26:17.795Z,4.64
2023-02-06T21:28:46.186Z,4.92
2023-02-06T21:31:19.087Z,4.91
2023-02-06T21:33:47.062Z,4.82
2023-02-06T21:36:13.655Z,5.04
2023-02-06T21:38:41.141Z,4.78
2023-02-06T21:41:16.619Z,4.81
2023-02-06T21:43:43.508Z,4.79
2023-02-06T21:46:11.264Z,4.88
2023-02-06T21:48:38.890Z,4.86
2023-02-06T21:51:14.154Z,4.90
2023-02-06T21:53:42.025Z,4.85
2023-02-06T21:56:19.857Z,4.83
2023-02-06T21:58:47.495Z,4.72
2023-02-06T22:01:21.869Z,4.76
2023-02-06T22:03:48.625Z,4.33
2023-02-06T22:06:16.199Z,4.61
2023-02-06T22:08:45.243Z,4.57
2023-02-06T22:11:12.841Z,4.72
2023-02-06T22:13:40.074Z,4.71
2023-02-06T22:16:07.673Z,4.64
2023-02-06T22:18:34.211Z,4.70
2023-02-06T22:21:05.793Z,4.65
2023-02-06T22:23:32.443Z,4.59
2023-02-06T22:25:58.974Z,4.49
2023-02-06T22:28:25.482Z,4.52
2023-02-06T22:30:52.042Z,4.46
2023-02-06T22:33:18.664Z,4.48
2023-02-06T22:35:45.206Z,4.43
2023-02-06T22:38:11.760Z,4.40
2023-02-06T22:40:38.422Z,4.34
2023-02-06T22:43:04.948Z,4.33
2023-02-06T22:45:35.482Z,4.39
2023-02-06T22:48:02.132Z,4.35
2023-02-06T22:50:28.658Z,4.30
2023-02-06T22:53:13.743Z,4.26
2023-02-06T22:55:59.441Z,4.27
2023-02-06T22:58:25.980Z,4.28
2023-02-06T23:00:52.603Z,4.23
2023-02-06T23:03:19.219Z,4.18
2023-02-06T23:05:45.795Z,4.12
2023-02-06T23:08:12.319Z,4.05
2023-02-06T23:10:38.869Z,4.10
2023-02-06T23:13:05.396Z,3.99
2023-02-06T23:15:31.908Z,4.04
2023-02-06T23:17:58.602Z,3.97
2023-02-06T23:20:25.118Z,3.91
2023-02-06T23:22:51.653Z,4.10
2023-02-06T23:25:18.191Z,3.96
2023-02-06T23:27:44.836Z,3.80
2023-02-06T23:30:12.121Z,3.67
2023-02-06T23:32:38.682Z,3.81
2023-02-06T23:35:05.416Z,3.89
2023-02-06T23:37:32.038Z,3.94
2023-02-06T23:39:58.803Z,3.92
2023-02-06T23:42:25.331Z,4.03
2023-02-06T23:44:51.886Z,3.65
2023-02-06T23:47:18.406Z,3.85
2023-02-06T23:49:44.930Z,3.74
2023-02-06T23:52:11.478Z,3.84
2023-02-06T23:54:38.135Z,3.69
2023-02-06T23:57:04.671Z,3.88
2023-02-06T23:59:31.205Z,3.60
